広島空港の過去48時間の天気

広島空港 (New hiroshima)

現在時刻: 9/19 07:48 JST (9/18 22:48 UTC) 以下の時間は現地時間です。

過去48時間のMETAR気象情報
時間 風向 風速(m/s) 視程 気温(℃) 湿度(%) 気圧(hPa) 天気現象
19 07:00 3 10km以上 20 83 1015
19 06:10 北北西 2 10km以上 19 88 1014
18 22:00 北北西 6 10km以上 21 83 1014
18 21:00 北北西 6 10km以上 21 83 1014
18 20:00 北北西 7 10km以上 21 83 1013
18 19:00 北北西 6 10km以上 21 83 1013
18 18:00 北北西 7 10km以上 22 78 1012
18 17:00 北西 8 10km以上 23 78 1011
18 16:00 北北西 7 10km以上 25 65 1011
18 15:00 北北西 7 10km以上 25 65 1011
18 14:00 北西 6 10km以上 26 65 1011
18 13:00 北西 7 10km以上 26 70 1010
18 12:00 北西 5 10km以上 26 70 1010
18 11:00 北西 6 10km以上 25 78 1010
18 10:00 北西 6 10km以上 25 74 1010
18 09:00 西北西 4 10km以上 25 78 1010
18 08:00 西北西 4 10km以上 24 83 1009
18 07:00 西北西 3 10km以上 23 89 1008
18 06:10 北西 6 10km以上 22 94 1007
RJOA 182200Z 35005KT 310V040 9999 FEW025 20/17 Q1015
RJOA 182110Z 33004KT 280V030 9999 FEW025 SCT050 19/17 Q1014 RMK 1CU025 4SC050 A2996
RJOA 181300Z 34011KT 300V020 9999 FEW015 BKN060 21/18 Q1014
RJOA 181200Z 34011KT 9999 FEW015 BKN060 21/18 Q1014
RJOA 181100Z 33014KT 9999 FEW015 BKN060 21/18 Q1013
RJOA 181000Z 34012KT 9999 FEW015 BKN060 21/18 Q1013
RJOA 180900Z 33014KT 9999 FEW015 BKN050 22/18 Q1012
RJOA 180800Z 32016KT 9999 FEW020 23/19 Q1011
RJOA 180700Z 33014KT 9999 FEW025 SCT050 25/18 Q1011
RJOA 180600Z 33014KT 9999 FEW025 SCT040 25/18 Q1011
RJOA 180500Z 31011G22KT 270V350 9999 FEW020 SCT035 26/19 Q1011
RJOA 180400Z 32014KT 290V360 9999 FEW020 SCT035 26/20 Q1010
RJOA 180300Z 31009KT 280V360 9999 FEW020 SCT025 26/20 Q1010
RJOA 180200Z 31011KT 9999 FEW020 BKN025 25/21 Q1010
RJOA 180100Z 32012KT 280V350 9999 FEW020 SCT025 25/20 Q1010
RJOA 180000Z 30008KT 9999 FEW020 SCT025 25/21 Q1010
RJOA 172300Z 29008KT 260V320 9999 FEW015 SCT025 24/21 Q1009
RJOA 172200Z 30005KT 260V350 9999 FEW015 SCT/// 23/21 Q1008
RJOA 172110Z 31011KT 290V350 9999 FEW012 SCT040 BKN/// 22/21 Q1007 RMK 1CU012 3SC040 A2976